Time;durP1;ratioP1;P1;durP2;ratioP2;P2;SDS_P1;SDS_P2;PMS_P1;PMS_P2;Temp;Humidity;BMP_temperature;BMP_pressure;BME280_temperature;BME280_humidity;BME280_pressure;Samples;Min_cycle;Max_cycle;Signal;HPM_P1;HPM_P2
2023/05/07 00:01:47;;;;;;;14.83;8.97;;;;;;;11.45;84.60;95079.50;5014835;28;20181;-77
2023/05/07 00:04:13;;;;;;;14.47;8.17;;;;;;;11.40;84.39;95066.16;5005837;28;20188;-76
2023/05/07 00:06:39;;;;;;;19.07;9.37;;;;;;;11.41;84.71;95075.69;5014595;28;20172;-77
2023/05/07 00:09:05;;;;;;;15.47;9.33;;;;;;;11.37;84.61;95068.38;4995842;28;20184;-77
2023/05/07 00:11:30;;;;;;;16.73;9.67;;;;;;;11.29;84.80;95062.34;4977420;28;20562;-77
2023/05/07 00:13:56;;;;;;;14.97;8.90;;;;;;;11.30;85.08;95057.88;5000664;28;20555;-77
2023/05/07 00:16:21;;;;;;;20.20;9.63;;;;;;;11.29;85.34;95062.34;4997734;28;20684;-77
2023/05/07 00:18:47;;;;;;;16.13;7.83;;;;;;;11.16;85.53;95051.03;5004885;28;20187;-77
2023/05/07 00:21:12;;;;;;;18.27;9.43;;;;;;;11.19;85.55;95055.91;5010547;28;20183;-76
2023/05/07 00:23:37;;;;;;;16.87;8.83;;;;;;;11.14;85.77;95061.81;5009196;28;20176;-76
2023/05/07 00:26:03;;;;;;;17.63;8.50;;;;;;;11.10;85.38;95050.06;5004530;28;20181;-77
2023/05/07 00:28:29;;;;;;;13.40;8.13;;;;;;;11.04;85.61;95036.91;5005168;28;20188;-77
2023/05/07 00:30:55;;;;;;;11.87;8.03;;;;;;;11.15;85.67;95057.34;5014099;28;20196;-77
2023/05/07 00:33:20;;;;;;;15.00;8.97;;;;;;;11.09;85.80;95051.06;5007614;28;20252;-77
2023/05/07 00:35:46;;;;;;;12.00;8.70;;;;;;;11.10;85.97;95060.59;4994277;28;20211;-76
2023/05/07 00:38:11;;;;;;;13.00;7.70;;;;;;;10.99;85.55;95042.78;4994331;28;20662;-76
2023/05/07 00:40:37;;;;;;;14.67;8.43;;;;;;;11.06;85.43;95058.59;5007155;28;20200;-76
2023/05/07 00:43:02;;;;;;;11.67;7.47;;;;;;;11.02;85.44;95058.19;5007321;28;20618;-77
2023/05/07 00:45:28;;;;;;;12.53;8.37;;;;;;;11.02;85.39;95060.00;5003046;28;20170;-77
2023/05/07 00:48:01;;;;;;;10.20;7.07;;;;;;;10.94;85.25;95061.88;4994103;28;20189;-77
2023/05/07 00:50:28;;;;;;;14.40;7.43;;;;;;;10.89;85.59;95061.69;4994235;28;20176;-77
2023/05/07 00:52:54;;;;;;;11.47;7.17;;;;;;;10.86;86.09;95063.94;5010693;28;20184;-77
2023/05/07 00:55:23;;;;;;;12.87;7.27;;;;;;;10.86;86.13;95063.94;5013304;28;20283;-77
2023/05/07 00:57:50;;;;;;;9.93;6.43;;;;;;;10.79;86.15;95056.06;5013562;28;20616;-76
2023/05/07 01:00:16;;;;;;;14.43;7.47;;;;;;;10.73;86.14;95061.31;5006980;28;20208;-77
2023/05/07 01:02:42;;;;;;;14.23;7.00;;;;;;;10.57;86.49;95065.19;5002609;28;20192;-76
2023/05/07 01:05:10;;;;;;;10.90;7.40;;;;;;;10.56;86.93;95061.75;5013558;28;20565;-77
2023/05/07 01:07:38;;;;;;;16.27;7.27;;;;;;;10.61;86.86;95063.78;5013368;28;20180;-77
2023/05/07 01:10:05;;;;;;;10.50;7.23;;;;;;;10.63;86.78;95061.75;5013207;28;20250;-77
2023/05/07 01:12:31;;;;;;;10.57;7.03;;;;;;;10.66;86.83;95063.97;4994656;28;20181;-77
2023/05/07 01:14:57;;;;;;;10.87;7.10;;;;;;;10.58;86.49;95065.00;5005932;28;20227;-76
2023/05/07 01:17:23;;;;;;;10.33;7.07;;;;;;;10.62;86.74;95070.66;5013250;28;20203;-77
2023/05/07 01:19:48;;;;;;;13.30;7.03;;;;;;;10.54;85.88;95061.16;4996403;28;20177;-77
2023/05/07 01:22:16;;;;;;;17.37;7.40;;;;;;;10.56;86.12;95061.75;5012480;28;20172;-77
2023/05/07 01:24:42;;;;;;;9.77;7.37;;;;;;;10.45;86.35;95045.78;5008850;28;20177;-76
2023/05/07 01:27:08;;;;;;;11.13;6.60;;;;;;;10.54;86.68;95069.06;5002163;28;20177;-77
2023/05/07 01:29:33;;;;;;;11.53;7.43;;;;;;;10.60;86.36;95067.44;5004496;28;20184;-77
2023/05/07 01:32:00;;;;;;;10.20;7.17;;;;;;;10.59;85.93;95061.34;4995874;28;20188;-77
2023/05/07 01:34:30;;;;;;;10.47;7.33;;;;;;;10.47;85.89;95057.72;5004199;28;20193;-77
2023/05/07 01:36:57;;;;;;;13.60;7.83;;;;;;;10.50;85.98;95070.47;4995532;28;20275;-77
2023/05/07 01:39:25;;;;;;;10.67;7.00;;;;;;;10.41;86.51;95049.84;4994205;28;20225;-77
2023/05/07 01:41:51;;;;;;;9.30;6.87;;;;;;;10.36;86.24;95032.03;4993444;28;20176;-77
2023/05/07 01:44:18;;;;;;;13.43;8.30;;;;;;;10.37;86.04;95032.84;4999337;28;20172;-77
2023/05/07 01:46:45;;;;;;;12.37;6.93;;;;;;;10.43;85.88;95048.63;4995846;28;20268;-77
2023/05/07 01:49:10;;;;;;;11.80;6.30;;;;;;;10.34;85.75;95036.69;4993370;28;20181;-77
2023/05/07 01:51:36;;;;;;;12.13;6.67;;;;;;;10.36;86.39;95039.13;4993134;28;20177;-77
2023/05/07 01:54:01;;;;;;;12.40;6.67;;;;;;;10.39;85.99;95043.97;4990624;28;20203;-77
2023/05/07 01:56:27;;;;;;;9.90;7.13;;;;;;;10.41;85.69;95044.56;4995340;28;20193;-77
2023/05/07 01:58:52;;;;;;;20.77;8.60;;;;;;;10.39;85.42;95038.69;5004535;28;20186;-77
2023/05/07 02:01:18;;;;;;;12.37;6.67;;;;;;;10.34;85.75;95035.88;4999923;28;20942;-77
2023/05/07 02:03:43;;;;;;;14.50;7.13;;;;;;;10.28;85.58;95042.78;5001533;28;20177;-77
2023/05/07 02:06:09;;;;;;;12.80;7.30;;;;;;;10.19;85.60;95031.66;5001597;28;20697;-77
2023/05/07 02:08:35;;;;;;;11.03;7.80;;;;;;;10.08;85.97;95023.53;4992822;28;20179;-77
2023/05/07 02:11:00;;;;;;;14.43;8.67;;;;;;;10.10;86.62;95024.16;4992861;28;20260;-77
2023/05/07 02:13:29;;;;;;;12.53;8.37;;;;;;;9.99;86.80;95006.34;5001602;28;20180;-77
2023/05/07 02:15:54;;;;;;;15.13;8.30;;;;;;;10.03;87.15;95010.19;5010838;28;20204;-77
2023/05/07 02:18:20;;;;;;;18.93;8.80;;;;;;;10.07;87.17;95024.53;5012168;28;20417;-77
2023/05/07 02:20:45;;;;;;;13.87;7.83;;;;;;;10.01;87.49;95026.19;5003617;28;20423;-77
2023/05/07 02:23:10;;;;;;;14.77;8.57;;;;;;;9.86;87.75;95007.13;5003068;28;20258;-77
2023/05/07 02:25:36;;;;;;;12.00;8.00;;;;;;;9.81;87.80;95006.94;5003312;28;20179;-77
2023/05/07 02:28:01;;;;;;;13.60;7.97;;;;;;;9.93;87.35;95021.13;4994746;28;20550;-77
2023/05/07 02:30:27;;;;;;;12.80;8.60;;;;;;;9.73;87.88;95012.41;5003248;28;20206;-77
2023/05/07 02:32:52;;;;;;;11.60;8.27;;;;;;;9.81;87.67;95018.28;4995835;28;20180;-77
2023/05/07 02:35:17;;;;;;;14.17;7.93;;;;;;;9.80;88.03;95027.16;5010810;28;20291;-77
2023/05/07 02:37:43;;;;;;;18.80;8.83;;;;;;;9.76;88.02;95018.09;5003528;28;20180;-77
2023/05/07 02:40:09;;;;;;;16.20;8.27;;;;;;;9.75;88.04;95026.97;5012048;28;20177;-77
2023/05/07 02:42:34;;;;;;;14.83;9.13;;;;;;;9.75;88.08;95026.16;5004384;28;20660;-77
2023/05/07 02:45:00;;;;;;;15.43;9.67;;;;;;;9.75;88.50;95034.06;4992286;28;20177;-77
2023/05/07 02:47:27;;;;;;;16.33;8.67;;;;;;;9.74;88.39;95027.19;4992380;28;20172;-77
2023/05/07 02:49:53;;;;;;;15.83;8.43;;;;;;;9.75;88.83;95021.72;4992242;28;20173;-77
2023/05/07 02:52:19;;;;;;;12.13;8.27;;;;;;;9.74;88.32;95029.81;5008998;28;20172;-77
2023/05/07 02:54:44;;;;;;;14.67;8.00;;;;;;;9.73;88.17;95030.81;5002884;28;20196;-77
2023/05/07 02:57:10;;;;;;;15.87;9.17;;;;;;;9.73;88.37;95034.25;5007848;28;20180;-77
2023/05/07 02:59:35;;;;;;;12.03;8.40;;;;;;;9.52;88.66;95025.72;5006741;28;20176;-77
2023/05/07 03:02:01;;;;;;;14.10;8.37;;;;;;;9.62;88.88;95040.09;4993708;28;20220;-77
2023/05/07 03:04:26;;;;;;;13.10;7.80;;;;;;;9.64;88.65;95039.91;5002582;28;20232;-77
2023/05/07 03:06:51;;;;;;;14.20;8.70;;;;;;;9.64;88.70;95042.53;5011528;28;20188;-77
2023/05/07 03:09:17;;;;;;;14.77;8.37;;;;;;;9.62;88.71;95036.66;5004346;28;20174;-77
2023/05/07 03:11:42;;;;;;;19.67;9.30;;;;;;;9.61;88.64;95046.34;4995831;28;20200;-77
2023/05/07 03:14:08;;;;;;;17.60;9.27;;;;;;;9.64;89.31;95045.97;5004596;28;20583;-77
2023/05/07 03:16:33;;;;;;;17.10;8.80;;;;;;;9.67;88.73;95044.75;5003852;28;20284;-77
2023/05/07 03:18:58;;;;;;;13.93;8.50;;;;;;;9.66;88.05;95045.78;4998120;28;20177;-77
2023/05/07 03:21:24;;;;;;;16.47;8.83;;;;;;;9.62;88.11;95047.16;5002888;28;20177;-77
2023/05/07 03:23:49;;;;;;;19.70;8.83;;;;;;;9.61;88.19;95045.53;4994822;28;20172;-77
2023/05/07 03:26:15;;;;;;;15.63;8.03;;;;;;;9.60;87.83;95050.00;4991883;28;20176;-76
2023/05/07 03:28:40;;;;;;;17.90;9.37;;;;;;;9.61;88.89;95050.78;4990054;28;20416;-77
2023/05/07 03:31:06;;;;;;;16.90;8.70;;;;;;;9.62;88.28;95044.53;5004744;28;20176;-77
2023/05/07 03:33:33;;;;;;;16.83;7.83;;;;;;;9.75;87.91;95055.09;5003014;28;20251;-76
2023/05/07 03:35:59;;;;;;;14.93;7.77;;;;;;;9.69;87.54;95046.16;5005210;28;20633;-77
2023/05/07 03:38:24;;;;;;;13.17;7.70;;;;;;;9.77;87.31;95061.75;5008605;28;20220;-77
2023/05/07 03:40:50;;;;;;;14.33;7.13;;;;;;;9.81;87.17;95062.16;5013222;28;20263;-77
2023/05/07 03:43:15;;;;;;;12.70;7.53;;;;;;;9.83;87.19;95060.16;5004534;28;20637;-77
2023/05/07 03:45:40;;;;;;;11.77;7.40;;;;;;;9.86;87.16;95064.19;5001923;28;20169;-77
2023/05/07 03:48:06;;;;;;;11.83;7.43;;;;;;;9.89;87.04;95069.84;5001918;28;20181;-77
2023/05/07 03:50:31;;;;;;;11.67;7.20;;;;;;;9.92;87.10;95073.91;4995583;28;20204;-77
2023/05/07 03:52:56;;;;;;;14.13;7.50;;;;;;;10.00;87.24;95078.97;4995781;28;20192;-77
2023/05/07 03:55:22;;;;;;;14.53;7.87;;;;;;;10.02;87.07;95075.13;4999727;28;20753;-77
2023/05/07 03:57:47;;;;;;;13.57;8.37;;;;;;;10.04;86.44;95062.56;4999490;28;20173;-77
2023/05/07 04:00:13;;;;;;;15.27;7.63;;;;;;;10.25;86.16;95074.75;5006401;28;20172;-77
2023/05/07 04:02:39;;;;;;;16.20;9.13;;;;;;;10.33;86.29;95076.38;5012069;28;20215;-77
2023/05/07 04:05:04;;;;;;;21.07;8.33;;;;;;;10.38;86.44;95073.94;5008340;28;20204;-77
2023/05/07 04:07:30;;;;;;;12.20;7.13;;;;;;;10.59;86.46;95089.50;5008058;28;20177;-77
2023/05/07 04:09:55;;;;;;;12.40;7.93;;;;;;;10.67;85.86;95091.91;5012760;28;20640;-77
2023/05/07 04:12:21;;;;;;;11.00;7.67;;;;;;;10.72;85.33;95084.22;5003607;28;20273;-78
2023/05/07 04:14:46;;;;;;;16.43;8.30;;;;;;;10.94;85.62;95101.38;5006220;28;20200;-77
2023/05/07 04:17:11;;;;;;;12.10;7.60;;;;;;;10.95;85.52;95092.47;5008282;28;20181;-78
2023/05/07 04:19:37;;;;;;;16.97;8.07;;;;;;;11.03;85.69;95091.44;5004012;28;20263;-77
2023/05/07 04:22:02;;;;;;;12.97;8.13;;;;;;;11.22;85.20;95097.66;5005363;28;20181;-78
2023/05/07 04:24:31;;;;;;;12.57;8.80;;;;;;;11.51;84.72;95123.47;4995299;28;20177;-78
2023/05/07 04:26:58;;;;;;;17.83;7.93;;;;;;;11.72;83.70;95120.53;5003693;28;20571;-78
2023/05/07 04:29:24;;;;;;;14.23;8.00;;;;;;;11.90;83.39;95129.59;5002887;28;20173;-78
2023/05/07 04:31:49;;;;;;;13.23;7.80;;;;;;;11.96;82.49;95111.09;4996885;28;20195;-78
2023/05/07 04:34:15;;;;;;;12.23;7.67;;;;;;;12.23;81.97;95130.19;5004630;28;20173;-78
2023/05/07 04:36:42;;;;;;;12.37;7.83;;;;;;;12.44;81.83;95132.47;5014539;28;20184;-78
2023/05/07 04:39:07;;;;;;;18.80;8.20;;;;;;;12.62;81.44;95133.56;4995222;28;20247;-77
2023/05/07 04:41:35;;;;;;;16.40;8.43;;;;;;;12.80;81.06;95136.22;4998286;28;20652;-78
2023/05/07 04:44:03;;;;;;;16.13;8.60;;;;;;;12.91;81.38;95119.66;5005535;28;20223;-78
2023/05/07 04:46:29;;;;;;;10.60;7.63;;;;;;;13.23;79.90;95138.09;5003376;28;20235;-78
2023/05/07 04:48:54;;;;;;;10.73;6.33;;;;;;;13.41;79.02;95136.22;4995079;28;20644;-78
2023/05/07 04:51:20;;;;;;;10.93;6.10;;;;;;;13.63;78.11;95133.13;5011549;28;20236;-78
2023/05/07 04:53:45;;;;;;;10.37;6.50;;;;;;;13.66;77.47;95120.28;5009633;28;20176;-78
2023/05/07 04:56:10;;;;;;;10.63;6.40;;;;;;;13.89;76.41;95127.50;5000722;28;20291;-78
2023/05/07 04:58:36;;;;;;;11.90;7.23;;;;;;;14.13;75.52;95131.84;5000346;28;20573;-77
2023/05/07 05:01:02;;;;;;;10.80;7.00;;;;;;;14.28;76.44;95128.75;4999258;28;20192;-78
2023/05/07 05:03:27;;;;;;;13.77;6.57;;;;;;;14.26;75.50;95128.22;5007626;28;20187;-77
2023/05/07 05:05:53;;;;;;;9.70;6.60;;;;;;;14.45;75.09;95134.25;5009210;28;20169;-78
2023/05/07 05:08:18;;;;;;;10.20;6.87;;;;;;;14.56;74.03;95121.03;5005024;28;20259;-77
2023/05/07 05:10:44;;;;;;;15.27;6.80;;;;;;;14.91;72.76;95136.16;5004876;28;20184;-78
2023/05/07 05:13:12;;;;;;;8.40;6.60;;;;;;;15.08;72.45;95121.97;5002768;28;20244;-77
2023/05/07 05:15:38;;;;;;;10.23;6.87;;;;;;;15.48;71.26;95137.94;5000184;28;20201;-78
2023/05/07 05:18:03;;;;;;;11.35;6.90;;;;;;;15.71;70.11;95139.75;4994292;28;20184;-78
2023/05/07 05:20:29;;;;;;;11.27;6.70;;;;;;;16.01;69.30;95142.19;4994341;28;20671;-78
2023/05/07 05:22:54;;;;;;;10.48;6.03;;;;;;;16.25;69.21;95148.22;4996149;28;20185;-78
2023/05/07 05:25:20;;;;;;;7.32;5.88;;;;;;;16.51;68.75;95126.34;5002440;28;20979;-78
2023/05/07 05:27:45;;;;;;;21.27;11.13;;;;;;;16.73;66.89;95133.63;5005337;28;20181;-78
2023/05/07 05:30:11;;;;;;;9.73;6.97;;;;;;;16.86;66.73;95134.13;5005145;28;20666;-78
2023/05/07 05:32:37;;;;;;;10.52;6.97;;;;;;;17.18;65.90;95146.81;5000004;28;20173;-78
2023/05/07 05:35:02;;;;;;;19.58;11.57;;;;;;;17.28;64.59;95150.44;5002970;28;20208;-79
2023/05/07 05:37:30;;;;;;;17.85;6.75;;;;;;;17.28;64.76;95128.34;4985241;28;20177;-80
2023/05/07 05:39:55;;;;;;;10.68;6.78;;;;;;;17.60;65.07;95147.13;4999970;28;20237;-80
2023/05/07 05:42:21;;;;;;;8.55;6.10;;;;;;;17.73;63.35;95146.00;5006080;28;20172;-80
2023/05/07 05:44:46;;;;;;;10.55;6.72;;;;;;;17.99;62.82;95150.53;5000340;28;20640;-81
2023/05/07 05:47:12;;;;;;;10.30;6.40;;;;;;;17.89;61.34;95148.59;5001451;28;20375;-80
2023/05/07 05:49:37;;;;;;;11.07;7.60;;;;;;;17.82;61.73;95142.63;4999739;28;20168;-80
2023/05/07 05:52:03;;;;;;;10.07;7.22;;;;;;;17.91;62.42;95149.13;5003321;28;20189;-80
2023/05/07 05:54:28;;;;;;;12.68;6.35;;;;;;;18.09;62.17;95147.97;5003439;28;20637;-80
2023/05/07 05:56:53;;;;;;;9.60;6.93;;;;;;;18.30;62.32;95141.81;5006081;28;20180;-80
2023/05/07 05:59:19;;;;;;;13.70;7.00;;;;;;;18.48;61.97;95151.31;5012930;28;20219;-79
2023/05/07 06:01:44;;;;;;;10.02;6.72;;;;;;;18.38;61.13;95138.69;5002259;28;20183;-78
2023/05/07 06:04:10;;;;;;;8.75;6.53;;;;;;;18.54;60.61;95136.16;5002232;28;20612;-80
2023/05/07 06:06:35;;;;;;;10.90;6.63;;;;;;;18.67;59.64;95117.13;5002363;28;20193;-80
2023/05/07 06:09:01;;;;;;;11.93;7.40;;;;;;;18.72;58.66;95149.97;5003646;28;20192;-81
2023/05/07 06:11:26;;;;;;;9.40;6.60;;;;;;;18.18;60.62;95148.34;5004864;28;20239;-80
2023/05/07 06:13:51;;;;;;;10.05;6.93;;;;;;;17.68;62.50;95136.88;5003644;28;20206;-81
2023/05/07 06:16:17;;;;;;;9.75;6.72;;;;;;;18.13;62.93;95132.31;4988003;28;20220;-80
2023/05/07 06:18:42;;;;;;;9.93;6.80;;;;;;;18.59;60.53;95142.41;5002031;28;20180;-78
2023/05/07 06:21:08;;;;;;;22.20;7.70;;;;;;;18.85;60.41;95143.41;4997559;28;20751;-75
2023/05/07 06:23:33;;;;;;;13.68;7.25;;;;;;;19.01;59.85;95152.34;5000304;28;20238;-77
2023/05/07 06:25:58;;;;;;;8.68;6.43;;;;;;;18.91;59.01;95147.72;4996769;28;20165;-77
2023/05/07 06:28:24;;;;;;;11.00;6.18;;;;;;;18.63;59.09;95116.81;5001355;28;20177;-79
2023/05/07 06:30:49;;;;;;;14.60;8.30;;;;;;;18.58;58.88;95119.47;4992898;28;20255;-78
2023/05/07 06:33:15;;;;;;;13.45;6.40;;;;;;;18.91;59.60;95128.25;4994534;28;20183;-78
2023/05/07 06:35:41;;;;;;;9.45;6.20;;;;;;;18.82;59.29;95120.72;4998225;28;20620;-78
2023/05/07 06:38:06;;;;;;;19.90;9.93;;;;;;;19.06;59.04;95112.34;4997026;28;20309;-79
2023/05/07 06:40:31;;;;;;;11.68;7.20;;;;;;;19.21;58.53;95107.88;5004388;28;20657;-77
2023/05/07 06:42:57;;;;;;;12.10;6.13;;;;;;;19.15;56.50;95114.25;4997171;28;20207;-79
2023/05/07 06:45:23;;;;;;;10.45;6.10;;;;;;;19.66;56.79;95119.91;4997480;28;20617;-79
2023/05/07 06:47:49;;;;;;;8.88;5.45;;;;;;;20.05;57.67;95111.50;5004406;28;20172;-78
2023/05/07 06:50:16;;;;;;;10.82;6.28;;;;;;;20.50;56.23;95119.59;5000292;28;20238;-77
2023/05/07 06:52:42;;;;;;;11.77;6.43;;;;;;;20.76;54.20;95109.72;4995234;28;20161;-77
2023/05/07 06:55:08;;;;;;;7.05;5.65;;;;;;;20.95;54.65;95102.75;5007180;28;20224;-78
2023/05/07 06:57:33;;;;;;;11.23;6.10;;;;;;;20.95;56.95;95108.13;4998065;28;20266;-77
2023/05/07 06:59:59;;;;;;;9.63;6.78;;;;;;;21.23;54.76;95106.78;4994921;28;20173;-78
2023/05/07 07:02:24;;;;;;;8.88;6.53;;;;;;;21.43;53.71;95084.50;4975497;28;20173;-79
2023/05/07 07:04:49;;;;;;;10.02;5.78;;;;;;;21.98;52.07;95118.34;5001892;28;20200;-80
2023/05/07 07:07:15;;;;;;;8.23;5.45;;;;;;;22.28;50.30;95111.22;4994575;28;20169;-79
2023/05/07 07:09:40;;;;;;;11.02;6.07;;;;;;;22.26;50.65;95111.47;4985623;28;20639;-79
2023/05/07 07:12:06;;;;;;;11.55;6.35;;;;;;;22.45;51.65;95100.91;5000774;28;20267;-80
2023/05/07 07:14:31;;;;;;;9.25;6.15;;;;;;;22.76;50.67;95105.00;5001358;28;20666;-80
2023/05/07 07:16:57;;;;;;;10.60;5.68;;;;;;;22.88;50.36;95099.25;4997765;28;20231;-80
2023/05/07 07:19:22;;;;;;;11.45;6.25;;;;;;;22.79;48.64;95096.38;5000666;28;20735;-79
2023/05/07 07:21:47;;;;;;;13.35;6.03;;;;;;;22.85;49.15;95086.38;4992887;28;20169;-79
2023/05/07 07:24:18;;;;;;;7.97;5.47;;;;;;;23.09;48.51;95084.56;5001322;28;20157;-81
2023/05/07 07:26:44;;;;;;;10.30;6.47;;;;;;;23.22;48.05;95091.97;5007485;28;20545;-79
2023/05/07 07:29:10;;;;;;;10.43;6.40;;;;;;;23.53;51.54;95092.47;4995955;28;20180;-79
2023/05/07 07:31:35;;;;;;;7.60;5.50;;;;;;;23.80;49.43;95104.50;5003969;28;20181;-79
2023/05/07 07:34:00;;;;;;;10.48;6.38;;;;;;;24.02;48.78;95091.34;5004308;28;20177;-79
2023/05/07 07:36:26;;;;;;;9.05;6.78;;;;;;;24.31;47.02;95083.94;4995577;28;20656;-79
2023/05/07 07:38:52;;;;;;;8.13;5.55;;;;;;;24.58;45.96;95083.28;4998940;28;20217;-79
2023/05/07 07:41:17;;;;;;;8.73;6.40;;;;;;;24.39;44.04;95102.13;5007648;28;20233;-80
2023/05/07 07:43:42;;;;;;;8.98;5.70;;;;;;;24.56;45.96;95111.63;5000967;28;20264;-80
2023/05/07 07:46:08;;;;;;;10.75;5.90;;;;;;;24.32;44.00;95108.97;4998677;28;20182;-81
2023/05/07 07:48:33;;;;;;;8.23;5.78;;;;;;;24.06;45.48;95114.66;5004623;28;20200;-79
2023/05/07 07:50:58;;;;;;;8.02;5.68;;;;;;;24.00;46.76;95110.47;5004224;28;20801;-79
2023/05/07 07:53:24;;;;;;;10.23;5.72;;;;;;;23.94;45.85;95111.63;4997797;28;20999;-78
2023/05/07 07:55:49;;;;;;;8.00;5.82;;;;;;;23.82;47.64;95100.47;4995610;28;20205;-78
2023/05/07 07:58:15;;;;;;;6.88;5.45;;;;;;;24.02;49.31;95092.16;4999832;28;20196;-79
2023/05/07 08:00:40;;;;;;;11.20;6.80;;;;;;;24.30;45.95;95093.13;4993639;28;20177;-79
2023/05/07 08:03:09;;;;;;;9.93;6.03;;;;;;;24.48;45.42;95104.16;5006960;28;20180;-79
2023/05/07 08:05:35;;;;;;;7.65;6.03;;;;;;;24.69;44.29;95092.00;4999305;28;20237;-79
2023/05/07 08:08:00;;;;;;;7.13;5.32;;;;;;;24.31;45.14;95100.09;5003290;28;20325;-79
2023/05/07 08:10:26;;;;;;;8.73;5.05;;;;;;;24.55;44.88;95061.56;5010881;28;20597;-79
2023/05/07 08:12:51;;;;;;;9.27;5.50;;;;;;;24.60;47.42;95059.56;5002011;28;20569;-80
2023/05/07 08:15:17;;;;;;;8.05;6.30;;;;;;;24.95;46.67;95095.91;5004826;28;20197;-79
2023/05/07 08:17:43;;;;;;;9.93;5.22;;;;;;;25.13;44.92;95096.97;5000785;28;20234;-80
2023/05/07 08:20:09;;;;;;;7.75;5.80;;;;;;;25.34;46.71;95075.84;5001633;28;20173;-80
2023/05/07 08:22:35;;;;;;;8.40;5.13;;;;;;;25.34;43.37;95105.50;5003158;28;20175;-78
2023/05/07 08:25:01;;;;;;;7.65;4.88;;;;;;;24.75;44.01;95080.84;5005652;28;20176;-78
2023/05/07 08:27:27;;;;;;;8.45;5.68;;;;;;;24.38;43.69;95083.59;4994643;28;20620;-78
2023/05/07 08:29:53;;;;;;;6.57;4.90;;;;;;;23.97;43.81;95091.38;5008257;28;20177;-78
2023/05/07 08:32:18;;;;;;;10.40;5.22;;;;;;;23.67;45.12;95066.50;5006306;28;20173;-80
2023/05/07 08:34:43;;;;;;;7.75;5.40;;;;;;;23.61;44.41;95067.63;5011915;28;20680;-81
2023/05/07 08:37:09;;;;;;;8.70;4.80;;;;;;;24.00;47.19;95072.00;4998889;28;20196;-83
2023/05/07 08:39:34;;;;;;;10.30;5.18;;;;;;;24.10;43.95;95063.00;5007455;28;20534;-83
2023/05/07 08:42:02;;;;;;;12.55;6.38;;;;;;;24.23;44.46;95083.81;5005819;28;20228;-82
2023/05/07 08:44:32;;;;;;;12.13;7.80;;;;;;;23.83;44.47;95083.25;4998048;28;20172;-82
2023/05/07 08:46:59;;;;;;;10.40;6.82;;;;;;;22.76;46.60;95077.34;5000664;28;20599;-81
2023/05/07 08:49:25;;;;;;;12.48;7.93;;;;;;;22.58;48.86;95058.13;5003834;28;20188;-82
2023/05/07 08:51:51;;;;;;;8.90;5.43;;;;;;;22.71;48.21;95072.78;5007282;28;20177;-82
2023/05/07 08:54:17;;;;;;;8.27;5.45;;;;;;;22.63;47.63;95054.59;4986152;28;20181;-82
2023/05/07 08:56:43;;;;;;;7.43;4.95;;;;;;;23.05;48.69;95048.63;5004698;28;20205;-82
2023/05/07 08:59:08;;;;;;;11.18;5.68;;;;;;;23.21;45.77;95062.69;5014013;28;20972;-82
2023/05/07 09:01:35;;;;;;;8.98;4.65;;;;;;;23.32;45.67;95032.75;4997540;28;20644;-82
2023/05/07 09:04:01;;;;;;;7.25;4.32;;;;;;;23.67;45.34;95020.78;5004283;28;20177;-82
2023/05/07 09:06:26;;;;;;;6.80;4.70;;;;;;;23.54;43.31;95048.38;5002427;28;20224;-83
2023/05/07 09:08:55;;;;;;;6.03;4.35;;;;;;;23.18;45.29;95047.94;4998721;28;20180;-86
2023/05/07 09:11:22;;;;;;;6.50;5.05;;;;;;;23.14;45.79;95052.28;4989055;28;20644;-81
2023/05/07 09:13:48;;;;;;;6.15;5.10;;;;;;;23.30;44.88;95047.53;4992907;28;20188;-82
2023/05/07 09:16:14;;;;;;;6.00;4.85;;;;;;;23.12;45.06;95022.22;4999402;28;20626;-88
2023/05/07 09:18:43;;;;;;;6.97;4.60;;;;;;;23.32;44.83;95016.63;5001158;28;20176;-82
2023/05/07 09:21:15;;;;;;;9.52;5.20;;;;;;;23.47;45.00;95037.13;4992933;28;20204;-82
2023/05/07 09:23:41;;;;;;;7.28;4.45;;;;;;;23.33;44.02;95014.75;5003510;28;20553;-80
2023/05/07 09:26:11;;;;;;;10.52;4.75;;;;;;;23.57;43.73;95037.03;5007718;28;20177;-81
2023/05/07 09:28:39;;;;;;;5.43;4.55;;;;;;;23.74;44.43;95019.63;5000985;28;20593;-81
2023/05/07 09:31:05;;;;;;;5.85;4.28;;;;;;;24.06;44.51;95047.41;4995971;28;20173;-81
2023/05/07 09:33:30;;;;;;;9.02;4.78;;;;;;;24.21;45.94;95021.44;5009073;28;20181;-80
2023/05/07 09:35:56;;;;;;;10.40;4.38;;;;;;;24.46;45.80;95020.22;5001990;28;20204;-79
2023/05/07 09:38:22;;;;;;;4.72;4.07;;;;;;;24.75;45.04;95036.97;5008305;28;20212;-80
2023/05/07 09:41:01;;;;;;;9.23;4.57;;;;;;;24.31;43.53;95023.94;5001898;28;20189;-81
2023/05/07 09:43:33;;;;;;;5.25;4.00;;;;;;;23.98;43.80;95020.38;4982758;28;20779;-82
2023/05/07 09:46:01;;;;;;;4.45;3.53;;;;;;;23.98;43.80;95028.44;4988692;28;20228;-82
2023/05/07 09:48:28;;;;;;;5.28;3.72;;;;;;;23.92;44.22;94990.06;4983165;28;20184;-82
2023/05/07 09:50:58;;;;;;;9.15;4.13;;;;;;;24.13;41.64;95019.38;4989327;28;20628;-80
2023/05/07 09:53:24;;;;;;;5.38;3.78;;;;;;;24.11;40.87;95022.34;4989482;28;20228;-79
2023/05/07 09:55:51;;;;;;;6.32;4.18;;;;;;;24.03;39.96;95002.28;4987967;28;20205;-81
2023/05/07 09:58:19;;;;;;;4.20;3.53;;;;;;;23.74;40.06;94992.75;4980879;28;20224;-79
2023/05/07 10:00:45;;;;;;;4.13;3.20;;;;;;;23.64;43.29;94991.00;4982976;28;20185;-79
2023/05/07 10:03:12;;;;;;;4.75;3.08;;;;;;;23.94;43.66;95016.69;4979167;28;20188;-80
2023/05/07 10:05:39;;;;;;;4.18;2.83;;;;;;;24.09;41.91;95016.44;4962846;28;20264;-83
2023/05/07 10:08:05;;;;;;;4.40;3.45;;;;;;;24.05;41.94;94992.00;4963042;28;20221;-82
2023/05/07 10:10:32;;;;;;;7.65;3.13;;;;;;;23.93;41.88;94994.34;4984805;28;20204;-81
2023/05/07 10:12:58;;;;;;;3.60;3.30;;;;;;;23.97;41.77;95010.69;4977479;28;20264;-78
2023/05/07 10:15:25;;;;;;;9.18;4.38;;;;;;;24.04;43.68;95009.25;4987963;28;20209;-77
2023/05/07 10:17:53;;;;;;;3.97;2.50;;;;;;;24.01;42.52;95007.16;4986070;28;20181;-77
2023/05/07 10:20:18;;;;;;;5.18;2.80;;;;;;;24.11;42.43;95003.50;4981748;28;20248;-80
2023/05/07 10:22:47;;;;;;;5.32;3.78;;;;;;;24.10;40.67;94996.53;4984769;28;20181;-82
2023/05/07 10:25:32;;;;;;;3.63;2.60;;;;;;;23.84;39.51;95003.38;4984670;28;20668;-79
2023/05/07 10:28:10;;;;;;;6.97;3.00;;;;;;;23.74;42.84;94998.91;4984421;28;20223;-80
2023/05/07 10:30:53;;;;;;;3.38;2.92;;;;;;;23.66;38.66;94992.31;4973452;28;20228;-81
2023/05/07 10:33:24;;;;;;;5.90;3.38;;;;;;;23.76;42.94;94974.44;4981194;28;20205;-82
2023/05/07 10:35:49;;;;;;;5.60;3.00;;;;;;;23.97;41.40;94971.16;4981981;28;20260;-80
2023/05/07 10:38:15;;;;;;;3.53;3.20;;;;;;;23.97;39.78;94976.53;4986767;28;20675;-79
2023/05/07 10:40:40;;;;;;;5.32;3.33;;;;;;;23.82;41.15;94973.28;4984529;28;20209;-79
2023/05/07 10:43:06;;;;;;;5.63;2.97;;;;;;;23.86;38.93;94985.06;4990156;28;20310;-79
2023/05/07 10:45:32;;;;;;;5.20;3.45;;;;;;;23.81;39.91;94977.03;5003716;28;21046;-79
2023/05/07 10:48:14;;;;;;;4.10;3.28;;;;;;;23.53;38.84;94970.69;5004045;28;20172;-79
2023/05/07 10:50:42;;;;;;;9.60;3.63;;;;;;;23.51;40.76;94975.59;4980988;28;20177;-79
2023/05/07 10:53:18;;;;;;;5.55;3.03;;;;;;;23.37;38.84;94972.75;4994387;28;20247;-79
2023/05/07 10:55:48;;;;;;;6.15;3.13;;;;;;;23.17;39.48;94952.34;4997592;28;20588;-78
2023/05/07 10:58:29;;;;;;;4.43;2.95;;;;;;;23.38;42.37;94955.53;5003837;28;20729;-76
2023/05/07 11:00:59;;;;;;;3.30;2.97;;;;;;;23.14;39.00;94936.78;5005103;28;20176;-78
2023/05/07 11:03:26;;;;;;;3.83;3.30;;;;;;;22.94;40.38;94937.81;4997186;28;20196;-76
2023/05/07 11:06:11;;;;;;;6.10;3.20;;;;;;;22.88;43.24;94957.75;5006800;28;20180;-77
2023/05/07 11:08:51;;;;;;;4.80;3.10;;;;;;;23.04;41.28;94957.56;5000946;28;20180;-77
2023/05/07 11:11:17;;;;;;;6.00;3.63;;;;;;;22.92;41.13;94960.66;5000629;28;20176;-77
2023/05/07 11:13:44;;;;;;;6.43;3.33;;;;;;;22.91;41.48;94959.06;4990614;28;20660;-77
2023/05/07 11:16:21;;;;;;;5.45;2.97;;;;;;;23.12;40.05;94955.06;4990222;28;20193;-77
2023/05/07 11:18:56;;;;;;;5.50;2.90;;;;;;;23.24;40.85;94952.78;4989091;28;20679;-78
2023/05/07 11:21:34;;;;;;;3.65;2.80;;;;;;;23.46;44.89;94949.53;4988390;28;20192;-77
2023/05/07 11:24:01;;;;;;;3.22;2.35;;;;;;;23.36;38.52;94938.91;4987411;28;20181;-77
2023/05/07 11:26:28;;;;;;;5.05;3.17;;;;;;;23.61;42.16;94952.03;4988151;28;20525;-77